Pagrindinis puslapis
METAR-TAF:

METAR-TAF

Oro uostai :

Ali Al Salem Air Base, Kuveitas

platuma: 29-20-48N, ilguma: 47-31-14E, Aukštis: 144 m

Dabartinis oras

Ataskaita buvo paskelbta 17 minutes, ne 06:58 UTC
Vėjas 9 kt iš Vakarų/Pietvakarių
Temperatūra 31°C
Drėgmė 12%
Slėgis 1016 hPa
Matomumas 10 km arba daugiau
Giedras dangus

METAR: OKAS 260658Z 25009KT 9999 CLR 31/M02 A3000 RMK A02A SLP156 T03071019

Laikas: 10:15 (07:15 UTC)

Prognozė

Ataskaita buvo paskelbta 8 valandos ir 15 minutes, ne 23:00 UTC
Prognozė galioja nuo 25 metu 23 UTC su 27 metu 05 UTC
Vėjas 9 kt iš Vakarų
Matomumas 10 km arba daugiau
Giedras dangus
Tapsmas
nuo 26 metu 10 UTC su 26 metu 11 UTC
Vėjas 6 kt nuo kintamojo kryptimis
Matomumas 10 km arba daugiau
Giedras dangus
Tapsmas
nuo 26 metu 19 UTC su 26 metu 20 UTC
Vėjas 9 kt iš Vakarų
Matomumas 10 km arba daugiau
Giedras dangus

TAF: OKAS 252300Z 2523/2705 26009KT 9999 SKC QNH2995INS BECMG 2610/2611 VRB06KT 9999 SKC QNH2995INS BECMG 2619/2620 26009KT 9999 SKC QNH2995INS TX34/2612Z TN17/2603Z

Orai ataskaitas ir orų prognozės (METAR, TAF).

turimą stotys yra geltonos ir raudonos taškus žemėlapyje.

Perkelti pele per norėdami pamatyti stoties vardą.

Tada spustelėkite, norėdami matyti oro stebėjimo ir prognozės.

Norėdami pakeisti žemėlapį: spustelėkite ant žalios mygtukų su juodo kryžiaus žemyn,; žalią mygtuką su brūkšneliu, jei norite nutolinti; arba žalių rodyklių gretimoms žemėlapius.


METAR-TAF: